createdAt,value
2022-11-29T00:00:52.573Z,15.00
2022-11-29T00:03:23.261Z,20.90
2022-11-29T00:05:54.464Z,20.60
2022-11-29T00:08:25.607Z,19.80
2022-11-29T00:10:56.307Z,14.60
2022-11-29T00:13:26.961Z,20.50
2022-11-29T00:16:02.423Z,21.70
2022-11-29T00:18:33.560Z,17.70
2022-11-29T00:21:08.745Z,21.00
2022-11-29T00:23:39.404Z,21.50
2022-11-29T00:26:10.726Z,16.50
2022-11-29T00:28:41.484Z,19.40
2022-11-29T00:31:19.185Z,16.50
2022-11-29T00:33:50.297Z,19.10
2022-11-29T00:36:21.529Z,19.60
2022-11-29T00:38:52.134Z,22.30
2022-11-29T00:41:23.226Z,19.40
2022-11-29T00:43:53.858Z,17.50
2022-11-29T00:46:25.373Z,23.50
2022-11-29T00:48:56.126Z,24.10
2022-11-29T00:51:26.855Z,15.70
2022-11-29T00:53:57.529Z,18.90
2022-11-29T00:56:28.461Z,19.70
2022-11-29T00:58:59.258Z,22.70
2022-11-29T01:01:30.034Z,23.60
2022-11-29T01:04:00.992Z,24.80
2022-11-29T01:06:31.694Z,23.00
2022-11-29T01:09:02.301Z,19.40
2022-11-29T01:11:32.953Z,21.60
2022-11-29T01:14:05.516Z,14.80
2022-11-29T01:16:36.454Z,24.70
2022-11-29T01:19:07.920Z,17.90
2022-11-29T01:21:38.601Z,22.10
2022-11-29T01:24:09.717Z,21.20
2022-11-29T01:26:40.568Z,25.70
2022-11-29T01:29:15.353Z,23.10
2022-11-29T01:31:45.948Z,24.80
2022-11-29T01:34:16.693Z,23.20
2022-11-29T01:36:47.218Z,23.40
2022-11-29T01:39:17.951Z,27.20
2022-11-29T01:41:48.580Z,24.70
2022-11-29T01:44:53.918Z,23.20
2022-11-29T01:47:24.592Z,25.60
2022-11-29T01:49:55.461Z,24.90
2022-11-29T01:52:29.649Z,24.40
2022-11-29T01:55:04.228Z,22.90
2022-11-29T01:57:36.648Z,24.00
2022-11-29T02:00:12.043Z,25.80
2022-11-29T02:02:50.055Z,23.30
2022-11-29T02:05:21.909Z,22.90
2022-11-29T02:07:57.062Z,26.70
2022-11-29T02:10:39.834Z,20.20
2022-11-29T02:13:21.293Z,24.00
2022-11-29T02:15:59.178Z,26.10
2022-11-29T02:18:44.006Z,24.10
2022-11-29T02:21:32.544Z,25.00
2022-11-29T02:24:46.928Z,21.00
2022-11-29T02:27:48.470Z,22.40
2022-11-29T02:30:38.430Z,20.70
2022-11-29T02:33:33.403Z,26.40
2022-11-29T02:36:18.509Z,18.50
2022-11-29T02:41:52.262Z,21.00
2022-11-29T02:44:47.191Z,28.90
2022-11-29T02:47:28.597Z,26.70
2022-11-29T02:50:18.942Z,23.10
2022-11-29T02:53:01.571Z,20.50
2022-11-29T02:55:39.758Z,25.20
2022-11-29T02:58:18.079Z,23.10
2022-11-29T03:00:56.839Z,25.10
2022-11-29T03:03:34.397Z,25.40
2022-11-29T03:06:16.442Z,25.70
2022-11-29T03:08:55.245Z,24.20
2022-11-29T03:11:39.587Z,25.00
2022-11-29T03:14:18.595Z,19.70
2022-11-29T03:19:44.994Z,22.10
2022-11-29T03:22:31.124Z,26.20
2022-11-29T03:25:09.072Z,22.90
2022-11-29T03:27:44.793Z,23.40
2022-11-29T03:30:19.116Z,20.40
2022-11-29T03:32:57.675Z,25.20
2022-11-29T03:35:36.278Z,27.50
2022-11-29T03:38:15.932Z,23.70
2022-11-29T03:40:54.537Z,20.10
2022-11-29T03:43:31.738Z,22.50
2022-11-29T03:46:08.250Z,24.30
2022-11-29T03:48:41.902Z,22.70
2022-11-29T03:51:19.825Z,25.60
2022-11-29T03:53:56.353Z,23.10
2022-11-29T03:56:31.672Z,23.50
2022-11-29T03:59:12.355Z,27.80
2022-11-29T04:02:12.339Z,25.80
2022-11-29T04:05:30.258Z,21.80
2022-11-29T04:08:18.589Z,25.00
2022-11-29T04:11:06.570Z,20.70
2022-11-29T04:14:02.670Z,24.50
2022-11-29T04:17:16.892Z,24.60
2022-11-29T04:20:06.476Z,24.40
2022-11-29T04:22:54.918Z,22.60
2022-11-29T04:26:10.303Z,20.80
2022-11-29T04:29:04.095Z,23.50
2022-11-29T04:31:46.810Z,21.70
2022-11-29T04:34:55.429Z,24.60
2022-11-29T04:38:07.851Z,23.20
2022-11-29T04:41:04.570Z,15.70
2022-11-29T04:43:54.231Z,20.50
2022-11-29T04:46:48.472Z,23.80
2022-11-29T04:49:32.970Z,23.90
2022-11-29T04:52:20.730Z,26.20
2022-11-29T04:55:02.986Z,20.80
2022-11-29T04:57:41.166Z,22.70
2022-11-29T05:00:14.518Z,24.60
2022-11-29T05:02:55.084Z,22.90
2022-11-29T05:05:35.000Z,26.70
2022-11-29T05:08:21.201Z,22.00
2022-11-29T05:11:00.467Z,24.40
2022-11-29T05:13:41.763Z,22.80
2022-11-29T05:16:38.638Z,19.70
2022-11-29T05:19:29.759Z,24.10
2022-11-29T05:22:11.605Z,21.00
2022-11-29T05:24:58.322Z,23.80
2022-11-29T05:27:40.365Z,22.20
2022-11-29T05:30:15.691Z,21.10
2022-11-29T05:32:58.203Z,25.50
2022-11-29T05:35:50.250Z,25.50
2022-11-29T05:38:53.298Z,21.30
2022-11-29T05:41:39.974Z,22.70
2022-11-29T05:44:15.135Z,25.50
2022-11-29T05:46:55.760Z,22.70
2022-11-29T05:49:40.278Z,21.70
2022-11-29T05:52:25.753Z,18.10
2022-11-29T05:55:11.303Z,18.30
2022-11-29T05:57:48.218Z,19.50
2022-11-29T06:00:21.424Z,17.90
2022-11-29T06:02:59.389Z,17.00
2022-11-29T06:05:36.933Z,19.30
2022-11-29T06:08:14.479Z,22.40
2022-11-29T06:10:57.831Z,20.10
2022-11-29T06:13:38.020Z,21.40
2022-11-29T06:16:26.169Z,12.30
2022-11-29T06:19:30.928Z,19.30
2022-11-29T06:22:17.870Z,23.20
2022-11-29T06:25:04.131Z,17.20
2022-11-29T06:27:50.509Z,23.40
2022-11-29T06:30:24.996Z,16.00
2022-11-29T06:33:01.290Z,18.40
2022-11-29T06:35:43.990Z,20.90
2022-11-29T06:38:18.973Z,12.30
2022-11-29T06:40:50.982Z,17.70
2022-11-29T06:43:22.791Z,19.90
2022-11-29T06:45:58.678Z,21.70
2022-11-29T06:48:35.795Z,20.40
2022-11-29T06:51:14.341Z,19.60
2022-11-29T06:53:51.750Z,21.90
2022-11-29T06:56:32.131Z,15.80
2022-11-29T06:59:08.778Z,20.80
2022-11-29T07:01:45.079Z,23.40
2022-11-29T07:04:45.829Z,16.30
2022-11-29T07:07:23.577Z,16.70
2022-11-29T07:09:59.590Z,21.40
2022-11-29T07:12:31.856Z,23.60
2022-11-29T07:15:04.185Z,22.70
2022-11-29T07:17:43.498Z,16.60
2022-11-29T07:20:23.573Z,18.80
2022-11-29T07:23:09.896Z,17.50
2022-11-29T07:25:51.873Z,24.00
2022-11-29T07:28:34.449Z,12.10
2022-11-29T07:31:10.532Z,22.60
2022-11-29T07:33:51.694Z,20.30
2022-11-29T07:36:34.059Z,18.40
2022-11-29T07:39:19.211Z,18.80
2022-11-29T07:42:01.098Z,20.80
2022-11-29T07:44:41.100Z,18.90
2022-11-29T07:47:12.329Z,22.10
2022-11-29T07:49:42.986Z,22.00
2022-11-29T07:52:15.607Z,15.70
2022-11-29T07:54:46.733Z,18.90
2022-11-29T07:57:17.648Z,15.70
2022-11-29T07:59:48.462Z,20.40
2022-11-29T08:02:28.895Z,22.00
2022-11-29T08:05:01.780Z,15.90
2022-11-29T08:07:35.004Z,12.40
2022-11-29T08:10:07.873Z,19.80
2022-11-29T08:12:42.704Z,16.00
2022-11-29T08:15:14.098Z,18.50
2022-11-29T08:17:44.709Z,21.00
2022-11-29T08:20:17.496Z,24.40
2022-11-29T08:22:54.179Z,21.30
2022-11-29T08:25:25.043Z,20.20
2022-11-29T08:27:56.133Z,19.10
2022-11-29T08:30:26.965Z,16.80
2022-11-29T08:32:58.022Z,18.30
2022-11-29T08:35:28.679Z,18.40
2022-11-29T08:37:59.243Z,18.00
2022-11-29T08:40:29.981Z,17.80
2022-11-29T08:43:01.431Z,17.30
2022-11-29T08:45:32.179Z,20.30
2022-11-29T08:48:02.975Z,18.00
2022-11-29T08:50:33.597Z,21.20
2022-11-29T08:53:22.179Z,15.60
2022-11-29T08:55:52.849Z,20.90
2022-11-29T08:58:24.156Z,17.50
2022-11-29T09:00:55.176Z,17.40
2022-11-29T09:03:43.896Z,10.90
2022-11-29T09:06:17.451Z,19.10
2022-11-29T09:08:48.079Z,17.10
2022-11-29T09:11:22.112Z,17.60
2022-11-29T09:13:54.540Z,10.50
2022-11-29T09:16:27.499Z,12.80
2022-11-29T09:21:30.689Z,15.60
2022-11-29T09:24:06.416Z,16.90
2022-11-29T09:26:40.663Z,13.50
2022-11-29T09:29:12.069Z,14.10
2022-11-29T09:31:43.599Z,16.40
2022-11-29T09:34:16.475Z,12.60
2022-11-29T09:36:48.218Z,18.30
2022-11-29T09:39:18.999Z,15.40
2022-11-29T09:42:32.300Z,17.60
2022-11-29T09:45:09.258Z,17.20
2022-11-29T09:48:11.252Z,13.30
2022-11-29T09:50:49.329Z,14.60
2022-11-29T09:53:36.376Z,14.40
2022-11-29T09:56:17.475Z,14.90
2022-11-29T09:58:53.979Z,16.80
2022-11-29T10:01:28.135Z,9.80
2022-11-29T10:04:02.530Z,12.60
2022-11-29T10:06:38.858Z,14.60
2022-11-29T10:09:18.606Z,12.00
2022-11-29T10:12:02.258Z,16.90
2022-11-29T10:14:40.211Z,17.20
2022-11-29T10:17:32.744Z,13.70
2022-11-29T10:20:11.575Z,15.50
2022-11-29T10:22:53.374Z,20.60
2022-11-29T10:25:29.699Z,9.70
2022-11-29T10:28:00.570Z,17.20
2022-11-29T10:30:34.007Z,18.10
2022-11-29T10:33:13.975Z,16.40
2022-11-29T10:35:45.333Z,13.80
2022-11-29T10:38:30.888Z,17.30
2022-11-29T10:41:06.489Z,16.60
2022-11-29T10:43:38.409Z,17.10
2022-11-29T10:46:16.719Z,17.00
2022-11-29T10:48:47.844Z,20.10
2022-11-29T10:51:19.932Z,14.40
2022-11-29T10:53:54.498Z,17.10
2022-11-29T10:56:29.692Z,16.10
2022-11-29T10:59:03.270Z,11.40
2022-11-29T11:01:37.204Z,18.20
2022-11-29T11:04:10.838Z,16.20
2022-11-29T11:06:51.429Z,19.00
2022-11-29T11:09:29.273Z,14.20
2022-11-29T11:12:02.476Z,16.50
2022-11-29T11:14:37.747Z,15.70
2022-11-29T11:17:26.416Z,16.30
2022-11-29T11:20:04.614Z,18.50
2022-11-29T11:22:39.950Z,18.50
2022-11-29T11:25:29.628Z,20.90
2022-11-29T11:28:11.820Z,15.30
2022-11-29T11:30:50.169Z,15.00
2022-11-29T11:33:25.440Z,12.80
2022-11-29T11:36:15.422Z,17.70
2022-11-29T11:38:53.932Z,20.50
2022-11-29T11:41:49.778Z,12.40
2022-11-29T11:44:52.321Z,20.10
2022-11-29T11:47:26.274Z,14.80
2022-11-29T11:50:08.015Z,17.40
2022-11-29T11:52:50.155Z,19.90
2022-11-29T11:55:33.505Z,20.20
2022-11-29T11:58:16.162Z,17.80
2022-11-29T12:01:06.279Z,19.90
2022-11-29T12:03:45.057Z,18.80
2022-11-29T12:06:28.355Z,19.60
2022-11-29T12:09:06.177Z,18.80
2022-11-29T12:11:46.118Z,21.10
2022-11-29T12:14:24.615Z,19.30
2022-11-29T12:17:05.553Z,19.90
2022-11-29T12:19:44.270Z,18.40
2022-11-29T12:22:22.665Z,18.30
2022-11-29T12:25:00.820Z,18.60
2022-11-29T12:27:32.958Z,18.40
2022-11-29T12:30:03.943Z,21.60
2022-11-29T12:32:53.913Z,19.50
2022-11-29T12:35:48.699Z,20.10
2022-11-29T12:38:35.207Z,19.20
2022-11-29T12:41:19.026Z,21.80
2022-11-29T12:44:05.320Z,20.10
2022-11-29T12:46:38.222Z,17.60
2022-11-29T12:54:42.803Z,20.50
2022-11-29T12:57:20.507Z,19.50
2022-11-29T13:00:07.153Z,23.40
2022-11-29T13:02:57.696Z,13.80
2022-11-29T13:05:39.163Z,20.50
2022-11-29T13:08:26.187Z,21.10
2022-11-29T13:11:08.291Z,23.30
2022-11-29T13:13:43.701Z,13.50
2022-11-29T13:19:25.891Z,18.60
2022-11-29T13:22:04.851Z,21.70
2022-11-29T13:27:18.636Z,22.80
2022-11-29T13:29:50.112Z,22.90
2022-11-29T13:32:41.240Z,21.40
2022-11-29T13:35:23.418Z,22.10
2022-11-29T13:37:56.691Z,25.80
2022-11-29T13:40:37.352Z,15.90
2022-11-29T13:43:18.030Z,23.40
2022-11-29T13:45:54.717Z,26.80
2022-11-29T13:48:37.018Z,23.90
2022-11-29T13:51:27.230Z,22.60
2022-11-29T13:54:00.691Z,20.10
2022-11-29T13:56:46.604Z,27.50
2022-11-29T13:59:24.415Z,22.60
2022-11-29T14:01:56.959Z,23.20
2022-11-29T14:04:38.614Z,23.70
2022-11-29T14:07:13.435Z,23.50
2022-11-29T14:09:52.203Z,25.60
2022-11-29T14:12:39.600Z,26.40
2022-11-29T14:15:23.627Z,35.50
2022-11-29T14:17:57.181Z,27.50
2022-11-29T14:20:57.615Z,22.10
2022-11-29T14:23:42.595Z,25.50
2022-11-29T14:26:28.835Z,25.80
2022-11-29T14:29:00.575Z,25.00
2022-11-29T14:31:50.430Z,20.90
2022-11-29T14:34:48.178Z,20.50
2022-11-29T14:37:30.611Z,25.20
2022-11-29T14:40:13.650Z,18.30
2022-11-29T14:42:52.706Z,24.30
2022-11-29T14:45:29.095Z,23.00
2022-11-29T14:48:00.323Z,21.10
2022-11-29T14:50:38.108Z,24.10
2022-11-29T14:53:29.151Z,21.90
2022-11-29T14:58:45.693Z,23.60
2022-11-29T15:01:24.798Z,22.10
2022-11-29T15:03:56.382Z,23.90
2022-11-29T15:06:36.975Z,22.90
2022-11-29T15:09:21.433Z,27.70
2022-11-29T15:12:02.318Z,26.90
2022-11-29T15:14:44.729Z,22.40
2022-11-29T15:17:35.836Z,27.90
2022-11-29T15:20:31.990Z,23.90
2022-11-29T15:23:05.351Z,23.10
2022-11-29T15:25:46.756Z,25.70
2022-11-29T15:28:23.736Z,25.90
2022-11-29T15:31:06.639Z,15.20
2022-11-29T15:33:41.105Z,21.70
2022-11-29T15:36:18.162Z,18.30
2022-11-29T15:38:51.525Z,28.50
2022-11-29T15:41:27.343Z,21.00
2022-11-29T15:44:00.169Z,26.90
2022-11-29T15:46:32.680Z,31.00
2022-11-29T15:49:21.233Z,29.20
2022-11-29T15:51:55.131Z,19.80
2022-11-29T15:54:31.979Z,25.10
2022-11-29T15:57:05.613Z,26.90
2022-11-29T15:59:42.222Z,29.40
2022-11-29T16:02:20.693Z,27.50
2022-11-29T16:04:55.528Z,18.10
2022-11-29T16:07:32.288Z,28.20
2022-11-29T16:10:13.347Z,28.30
2022-11-29T16:12:56.285Z,25.60
2022-11-29T16:15:31.534Z,22.60
2022-11-29T16:18:12.055Z,26.60
2022-11-29T16:21:01.037Z,33.20
2022-11-29T16:23:39.467Z,28.20
2022-11-29T16:26:24.213Z,30.60
2022-11-29T16:29:05.348Z,26.40
2022-11-29T16:32:05.507Z,33.80
2022-11-29T16:34:37.133Z,27.70
2022-11-29T16:37:13.049Z,29.90
2022-11-29T16:39:49.122Z,21.40
2022-11-29T16:42:25.707Z,29.20
2022-11-29T16:45:35.770Z,29.30
2022-11-29T16:48:29.297Z,28.00
2022-11-29T16:51:24.932Z,28.80
2022-11-29T16:53:56.682Z,29.10
2022-11-29T16:56:30.082Z,26.00
2022-11-29T16:59:21.081Z,34.60
2022-11-29T17:01:55.193Z,28.40
2022-11-29T17:04:26.173Z,28.00
2022-11-29T17:06:58.595Z,29.00
2022-11-29T17:09:32.604Z,32.10
2022-11-29T17:12:03.788Z,11.90
2022-11-29T17:14:34.518Z,28.00
2022-11-29T17:17:05.355Z,26.30
2022-11-29T17:19:36.671Z,27.40
2022-11-29T17:22:07.466Z,29.30
2022-11-29T17:24:44.746Z,26.90
2022-11-29T17:27:17.116Z,24.80
2022-11-29T17:29:47.948Z,29.80
2022-11-29T17:32:23.299Z,24.60
2022-11-29T17:34:57.094Z,28.70
2022-11-29T17:37:29.082Z,27.80
2022-11-29T17:40:00.001Z,27.30
2022-11-29T17:42:30.590Z,25.80
2022-11-29T17:45:01.273Z,31.70
2022-11-29T17:47:33.328Z,30.10
2022-11-29T17:50:04.256Z,27.90
2022-11-29T17:52:34.886Z,27.30
2022-11-29T17:55:06.135Z,29.80
2022-11-29T17:57:36.813Z,25.60
2022-11-29T18:00:12.977Z,28.80
2022-11-29T18:02:43.844Z,29.80
2022-11-29T18:05:14.470Z,32.60
2022-11-29T18:07:58.803Z,19.70
2022-11-29T18:10:30.886Z,28.70
2022-11-29T18:13:01.699Z,31.30
2022-11-29T18:15:33.210Z,26.00
2022-11-29T18:18:03.792Z,30.20
2022-11-29T18:20:34.642Z,26.10
2022-11-29T18:23:08.078Z,32.00
2022-11-29T18:25:40.045Z,24.50
2022-11-29T18:28:11.733Z,28.30
2022-11-29T18:30:43.715Z,29.70
2022-11-29T18:33:14.569Z,28.50
2022-11-29T18:35:45.404Z,22.20
2022-11-29T18:38:16.747Z,27.40
2022-11-29T18:40:47.653Z,29.00
2022-11-29T18:43:19.685Z,29.50
2022-11-29T18:45:50.368Z,20.70
2022-11-29T18:48:21.129Z,31.60
2022-11-29T18:50:51.726Z,30.20
2022-11-29T18:53:22.441Z,27.70
2022-11-29T18:56:02.815Z,23.80
2022-11-29T18:58:33.622Z,30.10
2022-11-29T19:01:10.186Z,35.80
2022-11-29T19:03:43.020Z,31.20
2022-11-29T19:06:16.461Z,34.00
2022-11-29T19:08:47.783Z,34.90
2022-11-29T19:11:20.139Z,30.80
2022-11-29T19:13:56.614Z,29.60
2022-11-29T19:16:28.432Z,33.80
2022-11-29T19:19:01.001Z,31.70
2022-11-29T19:21:34.425Z,25.20
2022-11-29T19:24:13.319Z,28.80
2022-11-29T19:26:45.410Z,29.20
2022-11-29T19:29:17.122Z,33.90
2022-11-29T19:31:48.156Z,36.60
2022-11-29T19:34:18.944Z,29.80
2022-11-29T19:36:49.584Z,33.20
2022-11-29T19:39:20.483Z,33.30
2022-11-29T19:41:51.218Z,37.50
2022-11-29T19:44:27.969Z,36.40
2022-11-29T19:47:00.603Z,37.10
2022-11-29T19:49:31.199Z,32.50
2022-11-29T19:52:01.797Z,27.50
2022-11-29T19:54:32.453Z,34.70
2022-11-29T19:57:03.083Z,36.20
2022-11-29T19:59:33.834Z,30.60
2022-11-29T20:02:04.619Z,29.60
2022-11-29T20:04:35.374Z,33.50
2022-11-29T20:07:06.291Z,34.00
2022-11-29T20:09:36.964Z,33.20
2022-11-29T20:12:08.207Z,36.30
2022-11-29T20:14:38.954Z,34.40
2022-11-29T20:17:09.753Z,30.40
2022-11-29T20:19:40.542Z,35.90
2022-11-29T20:22:11.331Z,31.40
2022-11-29T20:24:45.599Z,30.80
2022-11-29T20:27:16.509Z,33.00
2022-11-29T20:29:47.633Z,25.10
2022-11-29T20:32:18.867Z,27.90
2022-11-29T20:34:50.907Z,32.20
2022-11-29T20:37:49.458Z,30.10
2022-11-29T20:40:21.377Z,30.90
2022-11-29T20:43:11.108Z,29.20
2022-11-29T20:45:42.735Z,32.10
2022-11-29T20:48:20.783Z,22.70
2022-11-29T20:50:58.410Z,31.40
2022-11-29T20:53:34.937Z,31.50
2022-11-29T20:56:08.024Z,26.10
2022-11-29T20:58:38.850Z,27.30
2022-11-29T21:01:09.823Z,28.90
2022-11-29T21:03:40.649Z,22.70
2022-11-29T21:06:11.486Z,29.00
2022-11-29T21:08:42.827Z,33.60
2022-11-29T21:11:14.928Z,26.60
2022-11-29T21:13:47.594Z,26.30
2022-11-29T21:16:19.607Z,27.90
2022-11-29T21:18:51.268Z,36.80
2022-11-29T21:21:29.139Z,31.40
2022-11-29T21:24:06.690Z,29.80
2022-11-29T21:26:42.703Z,31.70
2022-11-29T21:29:19.701Z,29.70
2022-11-29T21:31:53.557Z,27.80
2022-11-29T21:34:24.609Z,23.70
2022-11-29T21:36:59.114Z,26.90
2022-11-29T21:39:34.123Z,26.00
2022-11-29T21:42:05.482Z,26.00
2022-11-29T21:44:36.450Z,25.60
2022-11-29T21:47:07.184Z,16.20
2022-11-29T21:49:37.918Z,28.20
2022-11-29T21:52:08.746Z,26.90
2022-11-29T21:54:40.289Z,30.90
2022-11-29T21:57:11.073Z,27.80
2022-11-29T21:59:41.898Z,27.10
2022-11-29T22:02:12.673Z,27.50
2022-11-29T22:04:46.893Z,29.50
2022-11-29T22:07:18.180Z,25.80
2022-11-29T22:09:49.844Z,26.10
2022-11-29T22:12:33.656Z,26.10
2022-11-29T22:15:05.829Z,15.50
2022-11-29T22:17:36.490Z,26.20
2022-11-29T22:20:10.244Z,23.00
2022-11-29T22:22:41.176Z,24.30
2022-11-29T22:25:12.612Z,23.60
2022-11-29T22:27:43.385Z,24.30
2022-11-29T22:30:15.612Z,19.90
2022-11-29T22:32:46.345Z,25.50
2022-11-29T22:35:17.223Z,24.20
2022-11-29T22:37:48.123Z,22.50
2022-11-29T22:40:19.066Z,23.10
2022-11-29T22:42:49.798Z,18.90
2022-11-29T22:45:20.522Z,22.80
2022-11-29T22:47:51.959Z,23.30
2022-11-29T22:50:22.581Z,12.40
2022-11-29T22:52:55.696Z,23.20
2022-11-29T22:55:26.682Z,22.80
2022-11-29T22:57:57.412Z,20.70
2022-11-29T23:00:28.054Z,19.70
2022-11-29T23:03:00.201Z,23.00
2022-11-29T23:05:32.375Z,19.60
2022-11-29T23:08:03.297Z,21.70
2022-11-29T23:10:33.983Z,23.40
2022-11-29T23:13:04.647Z,25.10
2022-11-29T23:15:35.380Z,25.60
2022-11-29T23:18:06.541Z,20.90
2022-11-29T23:20:37.480Z,22.30
2022-11-29T23:23:08.149Z,20.30
2022-11-29T23:25:38.826Z,21.40
2022-11-29T23:28:09.453Z,21.30
2022-11-29T23:30:40.035Z,24.10
2022-11-29T23:33:10.688Z,22.20
2022-11-29T23:35:41.583Z,23.80
2022-11-29T23:38:12.442Z,23.20
2022-11-29T23:40:43.061Z,21.70
2022-11-29T23:43:13.768Z,18.30
2022-11-29T23:45:44.595Z,20.80
2022-11-29T23:48:15.285Z,23.50
2022-11-29T23:50:46.582Z,15.70
2022-11-29T23:53:19.308Z,22.80
2022-11-29T23:55:58.295Z,22.20
2022-11-29T23:58:30.303Z,24.30
